sensor_id;sensor_type;location;lat;lon;timestamp;pressure;altitude;pressure_sealevel;temperature;humidity
21594;BME280;10959;51.328;7.322;2023-12-14T00:00:51;97982.28;;;8.50;77.43
21594;BME280;10959;51.328;7.322;2023-12-14T00:03:19;97980.91;;;8.43;77.68
21594;BME280;10959;51.328;7.322;2023-12-14T00:05:45;97991.66;;;8.43;77.74
21594;BME280;10959;51.328;7.322;2023-12-14T00:08:12;97991.94;;;8.46;78.27
21594;BME280;10959;51.328;7.322;2023-12-14T00:10:38;97994.69;;;8.51;77.74
21594;BME280;10959;51.328;7.322;2023-12-14T00:13:05;97998.94;;;8.42;78.44
21594;BME280;10959;51.328;7.322;2023-12-14T00:15:33;98007.47;;;8.34;78.73
21594;BME280;10959;51.328;7.322;2023-12-14T00:17:59;98008.25;;;8.30;79.24
21594;BME280;10959;51.328;7.322;2023-12-14T00:20:27;98013.88;;;8.28;78.66
21594;BME280;10959;51.328;7.322;2023-12-14T00:22:53;98013.78;;;8.18;79.26
21594;BME280;10959;51.328;7.322;2023-12-14T00:25:19;98006.72;;;8.12;79.20
21594;BME280;10959;51.328;7.322;2023-12-14T00:27:46;98022.78;;;8.02;79.76
21594;BME280;10959;51.328;7.322;2023-12-14T00:30:13;98022.22;;;8.00;79.57
21594;BME280;10959;51.328;7.322;2023-12-14T00:32:39;98027.31;;;7.96;79.79
21594;BME280;10959;51.328;7.322;2023-12-14T00:35:06;98025.66;;;7.95;80.01
21594;BME280;10959;51.328;7.322;2023-12-14T00:37:34;98031.69;;;8.02;79.76
21594;BME280;10959;51.328;7.322;2023-12-14T00:40:00;98032.03;;;8.11;79.57
21594;BME280;10959;51.328;7.322;2023-12-14T00:42:27;98041.72;;;8.12;79.07
21594;BME280;10959;51.328;7.322;2023-12-14T00:44:53;98043.31;;;8.08;79.39
21594;BME280;10959;51.328;7.322;2023-12-14T00:47:20;98047.94;;;8.12;79.07
21594;BME280;10959;51.328;7.322;2023-12-14T00:49:46;98055.75;;;8.14;79.39
21594;BME280;10959;51.328;7.322;2023-12-14T00:52:12;98063.81;;;8.14;79.04
21594;BME280;10959;51.328;7.322;2023-12-14T00:54:40;98062.75;;;8.15;79.00
21594;BME280;10959;51.328;7.322;2023-12-14T00:57:06;98067.88;;;8.16;79.02
21594;BME280;10959;51.328;7.322;2023-12-14T00:59:33;98073.06;;;8.23;78.96
21594;BME280;10959;51.328;7.322;2023-12-14T01:01:59;98074.94;;;8.22;78.77
21594;BME280;10959;51.328;7.322;2023-12-14T01:04:26;98082.72;;;8.19;78.95
21594;BME280;10959;51.328;7.322;2023-12-14T01:06:52;98085.84;;;8.06;78.80
21594;BME280;10959;51.328;7.322;2023-12-14T01:09:18;98086.22;;;7.93;79.24
21594;BME280;10959;51.328;7.322;2023-12-14T01:11:46;98095.34;;;7.92;78.98
21594;BME280;10959;51.328;7.322;2023-12-14T01:14:12;98111.00;;;7.95;79.05
21594;BME280;10959;51.328;7.322;2023-12-14T01:16:39;98122.09;;;7.98;78.93
21594;BME280;10959;51.328;7.322;2023-12-14T01:19:06;98122.91;;;7.99;79.05
21594;BME280;10959;51.328;7.322;2023-12-14T01:21:33;98126.66;;;7.98;79.03
21594;BME280;10959;51.328;7.322;2023-12-14T01:23:59;98122.59;;;7.95;79.04
21594;BME280;10959;51.328;7.322;2023-12-14T01:26:26;98131.94;;;7.88;79.33
21594;BME280;10959;51.328;7.322;2023-12-14T01:28:54;98137.06;;;7.89;78.90
21594;BME280;10959;51.328;7.322;2023-12-14T01:31:21;98136.13;;;7.79;79.28
21594;BME280;10959;51.328;7.322;2023-12-14T01:33:49;98145.94;;;7.90;79.43
21594;BME280;10959;51.328;7.322;2023-12-14T01:36:20;98155.72;;;7.96;78.77
21594;BME280;10959;51.328;7.322;2023-12-14T01:38:46;98152.97;;;7.91;79.03
21594;BME280;10959;51.328;7.322;2023-12-14T01:41:13;98158.34;;;7.91;79.21
21594;BME280;10959;51.328;7.322;2023-12-14T01:43:39;98157.53;;;7.90;79.38
21594;BME280;10959;51.328;7.322;2023-12-14T01:46:07;98162.09;;;7.90;79.02
21594;BME280;10959;51.328;7.322;2023-12-14T01:48:33;98171.88;;;7.96;79.20
21594;BME280;10959;51.328;7.322;2023-12-14T01:51:00;98178.69;;;8.03;78.96
21594;BME280;10959;51.328;7.322;2023-12-14T01:53:26;98159.91;;;7.87;79.14
21594;BME280;10959;51.328;7.322;2023-12-14T01:55:53;98178.75;;;7.87;78.92
21594;BME280;10959;51.328;7.322;2023-12-14T01:58:20;98187.25;;;7.79;79.72
21594;BME280;10959;51.328;7.322;2023-12-14T02:00:52;98187.22;;;7.73;79.33
21594;BME280;10959;51.328;7.322;2023-12-14T02:03:23;98186.13;;;7.74;79.20
21594;BME280;10959;51.328;7.322;2023-12-14T02:05:49;98194.47;;;7.73;79.29
21594;BME280;10959;51.328;7.322;2023-12-14T02:08:16;98200.03;;;7.66;79.21
21594;BME280;10959;51.328;7.322;2023-12-14T02:10:42;98215.03;;;7.62;79.44
21594;BME280;10959;51.328;7.322;2023-12-14T02:13:08;98212.59;;;7.61;79.19
21594;BME280;10959;51.328;7.322;2023-12-14T02:15:35;98225.06;;;7.50;79.53
21594;BME280;10959;51.328;7.322;2023-12-14T02:18:02;98225.16;;;7.55;79.54
21594;BME280;10959;51.328;7.322;2023-12-14T02:20:29;98223.34;;;7.61;79.64
21594;BME280;10959;51.328;7.322;2023-12-14T02:22:57;98234.13;;;7.61;79.37
21594;BME280;10959;51.328;7.322;2023-12-14T02:25:24;98241.69;;;7.64;79.44
21594;BME280;10959;51.328;7.322;2023-12-14T02:27:51;98239.72;;;7.59;79.33
21594;BME280;10959;51.328;7.322;2023-12-14T02:30:18;98246.03;;;7.48;79.45
21594;BME280;10959;51.328;7.322;2023-12-14T02:32:44;98251.63;;;7.47;79.47
21594;BME280;10959;51.328;7.322;2023-12-14T02:35:11;98257.94;;;7.36;79.73
21594;BME280;10959;51.328;7.322;2023-12-14T02:37:37;98279.75;;;7.23;79.91
21594;BME280;10959;51.328;7.322;2023-12-14T02:40:08;98277.13;;;7.11;79.93
21594;BME280;10959;51.328;7.322;2023-12-14T02:42:34;98275.41;;;7.05;80.42
21594;BME280;10959;51.328;7.322;2023-12-14T02:45:01;98267.28;;;7.00;80.37
21594;BME280;10959;51.328;7.322;2023-12-14T02:47:28;98276.00;;;7.07;80.49
21594;BME280;10959;51.328;7.322;2023-12-14T02:49:54;98289.69;;;7.05;80.42
21594;BME280;10959;51.328;7.322;2023-12-14T02:52:21;98285.31;;;7.16;80.00
21594;BME280;10959;51.328;7.322;2023-12-14T02:54:47;98295.25;;;7.15;79.75
21594;BME280;10959;51.328;7.322;2023-12-14T02:57:15;98287.25;;;7.04;79.70
21594;BME280;10959;51.328;7.322;2023-12-14T02:59:42;98297.75;;;7.05;80.10
21594;BME280;10959;51.328;7.322;2023-12-14T03:02:08;98307.31;;;7.13;79.84
21594;BME280;10959;51.328;7.322;2023-12-14T03:04:37;98306.38;;;7.07;79.89
21594;BME280;10959;51.328;7.322;2023-12-14T03:07:04;98317.13;;;7.07;79.88
21594;BME280;10959;51.328;7.322;2023-12-14T03:09:30;98327.56;;;7.04;79.59
21594;BME280;10959;51.328;7.322;2023-12-14T03:11:57;98322.09;;;6.99;79.37
21594;BME280;10959;51.328;7.322;2023-12-14T03:14:24;98323.72;;;7.00;79.53
21594;BME280;10959;51.328;7.322;2023-12-14T03:16:51;98329.19;;;7.05;79.64
21594;BME280;10959;51.328;7.322;2023-12-14T03:19:17;98328.16;;;7.06;79.30
21594;BME280;10959;51.328;7.322;2023-12-14T03:21:44;98330.63;;;6.96;79.23
21594;BME280;10959;51.328;7.322;2023-12-14T03:24:10;98331.03;;;6.88;79.60
21594;BME280;10959;51.328;7.322;2023-12-14T03:26:37;98329.38;;;6.87;79.54
21594;BME280;10959;51.328;7.322;2023-12-14T03:29:02;98329.38;;;6.87;79.66
21594;BME280;10959;51.328;7.322;2023-12-14T03:31:30;98336.97;;;6.90;79.37
21594;BME280;10959;51.328;7.322;2023-12-14T03:33:56;98342.59;;;6.88;79.36
21594;BME280;10959;51.328;7.322;2023-12-14T03:36:23;98341.16;;;6.97;79.10
21594;BME280;10959;51.328;7.322;2023-12-14T03:38:51;98348.75;;;7.00;78.85
21594;BME280;10959;51.328;7.322;2023-12-14T03:41:18;98345.91;;;7.07;79.04
21594;BME280;10959;51.328;7.322;2023-12-14T03:43:44;98356.75;;;7.12;78.66
21594;BME280;10959;51.328;7.322;2023-12-14T03:46:11;98358.97;;;7.15;78.54
21594;BME280;10959;51.328;7.322;2023-12-14T03:48:39;98357.31;;;7.14;78.47
21594;BME280;10959;51.328;7.322;2023-12-14T03:51:06;98363.78;;;7.13;78.26
21594;BME280;10959;51.328;7.322;2023-12-14T03:53:32;98366.47;;;7.13;78.42
21594;BME280;10959;51.328;7.322;2023-12-14T03:55:58;98373.59;;;7.07;78.16
21594;BME280;10959;51.328;7.322;2023-12-14T03:58:25;98374.88;;;7.05;78.23
21594;BME280;10959;51.328;7.322;2023-12-14T04:00:51;98379.00;;;6.96;78.16
21594;BME280;10959;51.328;7.322;2023-12-14T04:03:17;98387.00;;;6.91;78.40
21594;BME280;10959;51.328;7.322;2023-12-14T04:05:45;98386.06;;;6.85;78.54
21594;BME280;10959;51.328;7.322;2023-12-14T04:08:12;98394.47;;;6.89;78.78
21594;BME280;10959;51.328;7.322;2023-12-14T04:10:38;98403.03;;;6.86;78.47
21594;BME280;10959;51.328;7.322;2023-12-14T04:13:05;98403.81;;;6.86;78.80
21594;BME280;10959;51.328;7.322;2023-12-14T04:15:31;98407.94;;;6.89;78.53
21594;BME280;10959;51.328;7.322;2023-12-14T04:17:57;98412.13;;;6.85;78.68
21594;BME280;10959;51.328;7.322;2023-12-14T04:20:24;98421.13;;;6.79;78.79
21594;BME280;10959;51.328;7.322;2023-12-14T04:22:52;98421.63;;;6.76;79.02
21594;BME280;10959;51.328;7.322;2023-12-14T04:25:18;98433.75;;;6.78;78.91
21594;BME280;10959;51.328;7.322;2023-12-14T04:27:44;98442.16;;;6.82;78.84
21594;BME280;10959;51.328;7.322;2023-12-14T04:30:11;98441.00;;;6.78;78.66
21594;BME280;10959;51.328;7.322;2023-12-14T04:32:37;98450.38;;;6.63;78.88
21594;BME280;10959;51.328;7.322;2023-12-14T04:35:05;98462.19;;;6.51;79.44
21594;BME280;10959;51.328;7.322;2023-12-14T04:37:32;98464.19;;;6.55;79.42
21594;BME280;10959;51.328;7.322;2023-12-14T04:40:00;98459.25;;;6.64;79.32
21594;BME280;10959;51.328;7.322;2023-12-14T04:42:27;98474.53;;;6.75;79.10
21594;BME280;10959;51.328;7.322;2023-12-14T04:44:53;98473.84;;;6.80;78.77
21594;BME280;10959;51.328;7.322;2023-12-14T04:47:19;98476.16;;;6.88;78.80
21594;BME280;10959;51.328;7.322;2023-12-14T04:49:46;98465.88;;;6.85;78.54
21594;BME280;10959;51.328;7.322;2023-12-14T04:52:12;98471.25;;;6.85;78.48
21594;BME280;10959;51.328;7.322;2023-12-14T04:54:39;98483.78;;;6.79;78.39
21594;BME280;10959;51.328;7.322;2023-12-14T04:57:08;98482.38;;;6.77;78.16
21594;BME280;10959;51.328;7.322;2023-12-14T04:59:35;98481.69;;;6.70;78.27
21594;BME280;10959;51.328;7.322;2023-12-14T05:02:01;98490.22;;;6.67;78.58
21594;BME280;10959;51.328;7.322;2023-12-14T05:04:27;98492.41;;;6.70;78.28
21594;BME280;10959;51.328;7.322;2023-12-14T05:06:54;98486.09;;;6.76;78.32
21594;BME280;10959;51.328;7.322;2023-12-14T05:09:20;98487.84;;;6.82;78.11
21594;BME280;10959;51.328;7.322;2023-12-14T05:11:47;98484.25;;;6.76;78.08
21594;BME280;10959;51.328;7.322;2023-12-14T05:14:15;98492.66;;;6.80;78.24
21594;BME280;10959;51.328;7.322;2023-12-14T05:16:41;98502.59;;;6.79;78.17
21594;BME280;10959;51.328;7.322;2023-12-14T05:19:07;98498.38;;;6.72;77.87
21594;BME280;10959;51.328;7.322;2023-12-14T05:21:34;98504.81;;;6.71;77.88
21594;BME280;10959;51.328;7.322;2023-12-14T05:24:01;98502.91;;;6.71;78.19
21594;BME280;10959;51.328;7.322;2023-12-14T05:26:28;98513.09;;;6.69;78.14
21594;BME280;10959;51.328;7.322;2023-12-14T05:28:54;98512.53;;;6.67;78.42
21594;BME280;10959;51.328;7.322;2023-12-14T05:31:22;98504.81;;;6.71;78.10
21594;BME280;10959;51.328;7.322;2023-12-14T05:33:48;98513.56;;;6.78;78.00
21594;BME280;10959;51.328;7.322;2023-12-14T05:36:15;98523.16;;;6.74;77.91
21594;BME280;10959;51.328;7.322;2023-12-14T05:38:42;98520.13;;;6.70;77.82
21594;BME280;10959;51.328;7.322;2023-12-14T05:41:08;98522.19;;;6.68;78.13
21594;BME280;10959;51.328;7.322;2023-12-14T05:43:35;98534.47;;;6.64;78.02
21594;BME280;10959;51.328;7.322;2023-12-14T05:46:01;98537.75;;;6.66;78.18
21594;BME280;10959;51.328;7.322;2023-12-14T05:48:30;98540.06;;;6.62;78.06
21594;BME280;10959;51.328;7.322;2023-12-14T05:50:56;98553.03;;;6.66;78.11
21594;BME280;10959;51.328;7.322;2023-12-14T05:53:23;98547.19;;;6.69;78.21
21594;BME280;10959;51.328;7.322;2023-12-14T05:55:49;98559.59;;;6.70;77.97
21594;BME280;10959;51.328;7.322;2023-12-14T05:58:16;98544.41;;;6.63;78.02
21594;BME280;10959;51.328;7.322;2023-12-14T06:00:43;98562.28;;;6.70;77.88
21594;BME280;10959;51.328;7.322;2023-12-14T06:03:09;98556.81;;;6.65;78.06
21594;BME280;10959;51.328;7.322;2023-12-14T06:05:37;98568.69;;;6.69;78.07
21594;BME280;10959;51.328;7.322;2023-12-14T06:08:04;98564.97;;;6.70;77.95
21594;BME280;10959;51.328;7.322;2023-12-14T06:10:30;98564.97;;;6.70;77.73
21594;BME280;10959;51.328;7.322;2023-12-14T06:12:57;98564.63;;;6.66;77.77
21594;BME280;10959;51.328;7.322;2023-12-14T06:15:23;98574.31;;;6.55;77.93
21594;BME280;10959;51.328;7.322;2023-12-14T06:17:50;98582.94;;;6.57;78.14
21594;BME280;10959;51.328;7.322;2023-12-14T06:20:16;98593.34;;;6.54;77.72
21594;BME280;10959;51.328;7.322;2023-12-14T06:22:44;98599.88;;;6.46;77.69
21594;BME280;10959;51.328;7.322;2023-12-14T06:25:11;98605.09;;;6.41;77.94
21594;BME280;10959;51.328;7.322;2023-12-14T06:27:37;98617.50;;;6.42;78.16
21594;BME280;10959;51.328;7.322;2023-12-14T06:30:04;98622.63;;;6.44;77.97
21594;BME280;10959;51.328;7.322;2023-12-14T06:32:31;98625.53;;;6.42;78.13
21594;BME280;10959;51.328;7.322;2023-12-14T06:34:57;98628.22;;;6.42;77.97
21594;BME280;10959;51.328;7.322;2023-12-14T06:37:23;98624.84;;;6.47;78.32
21594;BME280;10959;51.328;7.322;2023-12-14T06:39:51;98637.47;;;6.46;78.37
21594;BME280;10959;51.328;7.322;2023-12-14T06:42:18;98646.31;;;6.47;78.23
21594;BME280;10959;51.328;7.322;2023-12-14T06:44:44;98655.81;;;6.49;78.30
21594;BME280;10959;51.328;7.322;2023-12-14T06:47:11;98658.25;;;6.51;77.75
21594;BME280;10959;51.328;7.322;2023-12-14T06:49:38;98666.63;;;6.31;77.99
21594;BME280;10959;51.328;7.322;2023-12-14T06:52:06;98673.66;;;6.14;78.58
21594;BME280;10959;51.328;7.322;2023-12-14T06:54:32;98682.03;;;6.06;78.82
21594;BME280;10959;51.328;7.322;2023-12-14T06:57:00;98680.38;;;6.05;78.96
21594;BME280;10959;51.328;7.322;2023-12-14T06:59:27;98691.88;;;6.12;78.98
21594;BME280;10959;51.328;7.322;2023-12-14T07:01:53;98694.22;;;6.20;78.74
21594;BME280;10959;51.328;7.322;2023-12-14T07:04:20;98687.09;;;6.14;78.74
21594;BME280;10959;51.328;7.322;2023-12-14T07:06:50;98692.91;;;6.11;78.63
21594;BME280;10959;51.328;7.322;2023-12-14T07:09:17;98696.22;;;5.95;79.05
21594;BME280;10959;51.328;7.322;2023-12-14T07:11:43;98698.47;;;5.98;79.27
21594;BME280;10959;51.328;7.322;2023-12-14T07:14:11;98704.53;;;6.05;79.03
21594;BME280;10959;51.328;7.322;2023-12-14T07:16:38;98711.69;;;6.11;78.94
21594;BME280;10959;51.328;7.322;2023-12-14T07:19:04;98723.03;;;6.13;78.95
21594;BME280;10959;51.328;7.322;2023-12-14T07:21:30;98722.50;;;6.04;78.90
21594;BME280;10959;51.328;7.322;2023-12-14T07:23:57;98733.03;;;6.06;78.95
21594;BME280;10959;51.328;7.322;2023-12-14T07:26:24;98742.88;;;6.12;78.89
21594;BME280;10959;51.328;7.322;2023-12-14T07:28:53;98744.22;;;6.21;78.68
21594;BME280;10959;51.328;7.322;2023-12-14T07:31:21;98748.69;;;6.27;78.65
21594;BME280;10959;51.328;7.322;2023-12-14T07:33:47;98743.59;;;6.37;78.47
21594;BME280;10959;51.328;7.322;2023-12-14T07:36:13;98754.47;;;6.42;78.35
21594;BME280;10959;51.328;7.322;2023-12-14T07:38:40;98756.25;;;6.48;78.25
21594;BME280;10959;51.328;7.322;2023-12-14T07:41:06;98756.38;;;6.53;77.90
21594;BME280;10959;51.328;7.322;2023-12-14T07:43:32;98763.09;;;6.44;78.01
21594;BME280;10959;51.328;7.322;2023-12-14T07:45:58;98774.31;;;6.41;77.96
21594;BME280;10959;51.328;7.322;2023-12-14T07:48:26;98777.69;;;6.37;78.17
21594;BME280;10959;51.328;7.322;2023-12-14T07:50:53;98782.81;;;6.38;78.30
21594;BME280;10959;51.328;7.322;2023-12-14T07:53:20;98788.44;;;6.37;78.26
21594;BME280;10959;51.328;7.322;2023-12-14T07:55:46;98796.47;;;6.37;78.26
21594;BME280;10959;51.328;7.322;2023-12-14T07:58:13;98799.81;;;6.32;78.22
21594;BME280;10959;51.328;7.322;2023-12-14T08:00:39;98814.47;;;6.18;78.33
21594;BME280;10959;51.328;7.322;2023-12-14T08:03:06;98809.59;;;6.08;78.40
21594;BME280;10959;51.328;7.322;2023-12-14T08:05:33;98829.59;;;5.94;78.63
21594;BME280;10959;51.328;7.322;2023-12-14T08:08:00;98831.31;;;5.89;79.00
21594;BME280;10959;51.328;7.322;2023-12-14T08:10:26;98827.38;;;5.85;78.77
21594;BME280;10959;51.328;7.322;2023-12-14T08:12:52;98831.06;;;5.90;79.01
21594;BME280;10959;51.328;7.322;2023-12-14T08:15:19;98834.13;;;5.94;78.89
21594;BME280;10959;51.328;7.322;2023-12-14T08:17:45;98833.19;;;5.82;78.92
21594;BME280;10959;51.328;7.322;2023-12-14T08:20:12;98847.19;;;5.84;79.12
21594;BME280;10959;51.328;7.322;2023-12-14T08:22:40;98850.69;;;5.91;78.88
21594;BME280;10959;51.328;7.322;2023-12-14T08:25:11;98864.25;;;5.96;78.85
21594;BME280;10959;51.328;7.322;2023-12-14T08:27:37;98860.09;;;6.00;78.71
21594;BME280;10959;51.328;7.322;2023-12-14T08:30:05;98864.03;;;5.97;78.54
21594;BME280;10959;51.328;7.322;2023-12-14T08:32:32;98877.41;;;6.04;78.45
21594;BME280;10959;51.328;7.322;2023-12-14T08:34:58;98873.22;;;6.08;78.42
21594;BME280;10959;51.328;7.322;2023-12-14T08:37:25;98874.88;;;6.09;78.47
21594;BME280;10959;51.328;7.322;2023-12-14T08:39:53;98886.94;;;6.00;78.15
21594;BME280;10959;51.328;7.322;2023-12-14T08:42:19;98881.22;;;5.90;78.53
21594;BME280;10959;51.328;7.322;2023-12-14T08:44:46;98890.81;;;5.79;78.76
21594;BME280;10959;51.328;7.322;2023-12-14T08:47:13;98891.25;;;5.76;78.69
21594;BME280;10959;51.328;7.322;2023-12-14T08:49:39;98884.16;;;5.82;78.85
21594;BME280;10959;51.328;7.322;2023-12-14T08:52:06;98893.19;;;5.94;78.68
21594;BME280;10959;51.328;7.322;2023-12-14T08:54:32;98896.84;;;5.99;78.35
21594;BME280;10959;51.328;7.322;2023-12-14T08:57:00;98909.16;;;6.07;78.23
21594;BME280;10959;51.328;7.322;2023-12-14T08:59:27;98912.22;;;6.11;78.31
21594;BME280;10959;51.328;7.322;2023-12-14T09:01:54;98920.22;;;6.17;78.26
21594;BME280;10959;51.328;7.322;2023-12-14T09:04:20;98925.97;;;6.21;77.69
21594;BME280;10959;51.328;7.322;2023-12-14T09:06:47;98938.41;;;6.15;77.58
21594;BME280;10959;51.328;7.322;2023-12-14T09:09:13;98934.97;;;6.08;77.53
21594;BME280;10959;51.328;7.322;2023-12-14T09:11:40;98936.91;;;6.01;77.66
21594;BME280;10959;51.328;7.322;2023-12-14T09:14:07;98949.09;;;5.97;77.57
21594;BME280;10959;51.328;7.322;2023-12-14T09:16:34;98943.78;;;5.90;77.68
21594;BME280;10959;51.328;7.322;2023-12-14T09:19:00;98952.66;;;5.91;77.88
21594;BME280;10959;51.328;7.322;2023-12-14T09:21:26;98950.38;;;5.94;77.98
21594;BME280;10959;51.328;7.322;2023-12-14T09:23:53;98949.97;;;5.91;77.95
21594;BME280;10959;51.328;7.322;2023-12-14T09:26:19;98956.75;;;5.93;77.70
21594;BME280;10959;51.328;7.322;2023-12-14T09:28:46;98963.41;;;5.91;77.68
21594;BME280;10959;51.328;7.322;2023-12-14T09:31:13;98964.25;;;5.85;77.47
21594;BME280;10959;51.328;7.322;2023-12-14T09:33:41;98960.63;;;5.73;77.87
21594;BME280;10959;51.328;7.322;2023-12-14T09:36:08;98970.47;;;5.79;78.01
21594;BME280;10959;51.328;7.322;2023-12-14T09:38:35;98988.88;;;5.75;77.73
21594;BME280;10959;51.328;7.322;2023-12-14T09:41:01;98987.41;;;5.79;77.78
21594;BME280;10959;51.328;7.322;2023-12-14T09:43:28;98985.97;;;5.77;77.68
21594;BME280;10959;51.328;7.322;2023-12-14T09:45:54;98988.59;;;5.83;77.63
21594;BME280;10959;51.328;7.322;2023-12-14T09:48:23;98992.75;;;5.86;77.65
21594;BME280;10959;51.328;7.322;2023-12-14T09:50:50;98997.47;;;5.84;77.55
21594;BME280;10959;51.328;7.322;2023-12-14T09:53:17;98997.31;;;5.85;77.60
21594;BME280;10959;51.328;7.322;2023-12-14T09:55:43;98998.50;;;5.89;77.52
21594;BME280;10959;51.328;7.322;2023-12-14T09:58:10;99013.38;;;5.92;77.77
21594;BME280;10959;51.328;7.322;2023-12-14T10:00:39;99019.47;;;5.99;77.40
21594;BME280;10959;51.328;7.322;2023-12-14T10:03:23;99016.69;;;5.87;77.54
21594;BME280;10959;51.328;7.322;2023-12-14T10:05:52;99020.34;;;5.93;77.51
21594;BME280;10959;51.328;7.322;2023-12-14T10:08:19;99028.59;;;5.98;77.64
21594;BME280;10959;51.328;7.322;2023-12-14T10:10:47;99028.16;;;6.01;77.58
21594;BME280;10959;51.328;7.322;2023-12-14T10:13:16;99035.16;;;6.02;77.53
21594;BME280;10959;51.328;7.322;2023-12-14T10:15:43;99033.69;;;6.06;77.83
21594;BME280;10959;51.328;7.322;2023-12-14T10:18:10;99036.22;;;6.01;77.74
21594;BME280;10959;51.328;7.322;2023-12-14T10:20:37;99037.25;;;6.00;77.58
21594;BME280;10959;51.328;7.322;2023-12-14T10:23:06;99046.31;;;5.99;77.65
21594;BME280;10959;51.328;7.322;2023-12-14T10:25:35;99047.19;;;5.93;77.60
21594;BME280;10959;51.328;7.322;2023-12-14T10:28:01;99046.75;;;5.96;77.81
21594;BME280;10959;51.328;7.322;2023-12-14T10:30:28;99054.56;;;6.04;77.63
21594;BME280;10959;51.328;7.322;2023-12-14T10:32:55;99058.63;;;6.13;77.56
21594;BME280;10959;51.328;7.322;2023-12-14T10:35:22;99051.19;;;6.15;77.30
21594;BME280;10959;51.328;7.322;2023-12-14T10:37:51;99059.44;;;6.14;77.26
21594;BME280;10959;51.328;7.322;2023-12-14T10:40:18;99060.88;;;6.16;77.24
21594;BME280;10959;51.328;7.322;2023-12-14T10:42:44;99056.94;;;6.19;77.18
21594;BME280;10959;51.328;7.322;2023-12-14T10:45:12;99051.63;;;6.12;77.20
21594;BME280;10959;51.328;7.322;2023-12-14T10:47:43;99067.88;;;6.17;77.34
21594;BME280;10959;51.328;7.322;2023-12-14T10:50:11;99075.25;;;6.28;77.59
21594;BME280;10959;51.328;7.322;2023-12-14T10:52:38;99081.22;;;6.30;77.08
21594;BME280;10959;51.328;7.322;2023-12-14T10:55:09;99071.34;;;6.24;76.86
21594;BME280;10959;51.328;7.322;2023-12-14T10:57:38;99091.84;;;6.19;76.93
21594;BME280;10959;51.328;7.322;2023-12-14T11:00:05;99090.41;;;6.16;77.13
21594;BME280;10959;51.328;7.322;2023-12-14T11:02:38;99092.47;;;6.14;77.03
21594;BME280;10959;51.328;7.322;2023-12-14T11:05:05;99092.47;;;6.14;77.38
21594;BME280;10959;51.328;7.322;2023-12-14T11:07:48;99095.44;;;6.06;77.24
21594;BME280;10959;51.328;7.322;2023-12-14T11:10:22;99098.72;;;6.08;77.30
21594;BME280;10959;51.328;7.322;2023-12-14T11:12:55;99099.19;;;5.98;77.26
21594;BME280;10959;51.328;7.322;2023-12-14T11:15:22;99104.63;;;5.92;77.60
21594;BME280;10959;51.328;7.322;2023-12-14T11:18:20;99104.41;;;5.87;77.78
21594;BME280;10959;51.328;7.322;2023-12-14T11:20:48;99108.69;;;6.01;77.75
21594;BME280;10959;51.328;7.322;2023-12-14T11:23:16;99112.13;;;6.08;77.53
21594;BME280;10959;51.328;7.322;2023-12-14T11:25:47;99118.50;;;6.14;77.48
21594;BME280;10959;51.328;7.322;2023-12-14T11:28:14;99123.00;;;6.20;77.29
21594;BME280;10959;51.328;7.322;2023-12-14T11:30:43;99127.59;;;6.19;77.01
21594;BME280;10959;51.328;7.322;2023-12-14T11:33:10;99139.13;;;6.20;77.35
21594;BME280;10959;51.328;7.322;2023-12-14T11:35:36;99137.69;;;6.17;77.26
21594;BME280;10959;51.328;7.322;2023-12-14T11:38:03;99141.25;;;6.11;77.38
21594;BME280;10959;51.328;7.322;2023-12-14T11:40:35;99140.47;;;6.04;77.29
21594;BME280;10959;51.328;7.322;2023-12-14T11:43:04;99135.97;;;5.98;77.21
21594;BME280;10959;51.328;7.322;2023-12-14T11:45:32;99135.75;;;5.93;77.21
21594;BME280;10959;51.328;7.322;2023-12-14T11:47:58;99149.41;;;5.85;77.65
21594;BME280;10959;51.328;7.322;2023-12-14T11:50:27;99150.03;;;5.80;77.71
21594;BME280;10959;51.328;7.322;2023-12-14T11:52:55;99145.50;;;5.81;77.69
21594;BME280;10959;51.328;7.322;2023-12-14T11:55:22;99147.56;;;5.79;77.73
21594;BME280;10959;51.328;7.322;2023-12-14T11:57:49;99148.59;;;5.78;77.57
21594;BME280;10959;51.328;7.322;2023-12-14T12:00:18;99148.19;;;5.74;77.68
21594;BME280;10959;51.328;7.322;2023-12-14T12:02:49;99152.53;;;5.75;77.83
21594;BME280;10959;51.328;7.322;2023-12-14T12:05:15;99158.31;;;5.79;77.63
21594;BME280;10959;51.328;7.322;2023-12-14T12:07:44;99160.13;;;5.85;77.66
21594;BME280;10959;51.328;7.322;2023-12-14T12:10:10;99159.75;;;5.88;77.63
21594;BME280;10959;51.328;7.322;2023-12-14T12:12:37;99156.84;;;5.89;77.38
21594;BME280;10959;51.328;7.322;2023-12-14T12:15:05;99155.13;;;6.01;77.27
21594;BME280;10959;51.328;7.322;2023-12-14T12:17:33;99151.63;;;6.01;76.93
21594;BME280;10959;51.328;7.322;2023-12-14T12:20:04;99163.16;;;6.08;76.96
21594;BME280;10959;51.328;7.322;2023-12-14T12:22:31;99165.22;;;6.06;77.17
21594;BME280;10959;51.328;7.322;2023-12-14T12:24:57;99165.63;;;6.10;76.97
21594;BME280;10959;51.328;7.322;2023-12-14T12:27:24;99164.38;;;6.12;76.77
21594;BME280;10959;51.328;7.322;2023-12-14T12:29:50;99164.38;;;6.12;77.06
21594;BME280;10959;51.328;7.322;2023-12-14T12:32:19;99161.94;;;6.04;76.66
21594;BME280;10959;51.328;7.322;2023-12-14T12:34:47;99168.75;;;6.06;76.84
21594;BME280;10959;51.328;7.322;2023-12-14T12:37:13;99176.41;;;6.03;76.84
21594;BME280;10959;51.328;7.322;2023-12-14T12:39:40;99161.56;;;5.94;76.90
21594;BME280;10959;51.328;7.322;2023-12-14T12:42:06;99171.91;;;5.90;76.76
21594;BME280;10959;51.328;7.322;2023-12-14T12:44:33;99174.00;;;5.88;77.13
21594;BME280;10959;51.328;7.322;2023-12-14T12:47:00;99169.03;;;5.92;76.91
21594;BME280;10959;51.328;7.322;2023-12-14T12:49:26;99172.75;;;5.91;77.12
21594;BME280;10959;51.328;7.322;2023-12-14T12:51:54;99183.47;;;5.91;76.63
21594;BME280;10959;51.328;7.322;2023-12-14T12:54:21;99175.63;;;5.89;76.94
21594;BME280;10959;51.328;7.322;2023-12-14T12:56:47;99172.97;;;5.83;76.84
21594;BME280;10959;51.328;7.322;2023-12-14T12:59:14;99181.44;;;5.73;76.87
21594;BME280;10959;51.328;7.322;2023-12-14T13:01:40;99180.19;;;5.76;76.95
21594;BME280;10959;51.328;7.322;2023-12-14T13:04:17;99181.44;;;5.80;76.81
21594;BME280;10959;51.328;7.322;2023-12-14T13:06:44;99182.63;;;5.84;76.69
21594;BME280;10959;51.328;7.322;2023-12-14T13:09:12;99179.78;;;5.79;76.57